createdAt,value
2019-03-05T00:00:43.757Z,65.32
2019-03-05T00:05:48.591Z,64.44
2019-03-05T00:10:53.019Z,65.18
2019-03-05T00:15:57.566Z,64.66
2019-03-05T00:21:01.965Z,65.18
2019-03-05T00:26:06.449Z,64.12
2019-03-05T00:31:16.843Z,64.68
2019-03-05T00:36:27.323Z,65.26
2019-03-05T00:41:49.147Z,64.15
2019-03-05T00:47:21.330Z,64.17
2019-03-05T00:52:37.881Z,64.40
2019-03-05T00:57:48.117Z,64.41
2019-03-05T01:03:15.183Z,64.18
2019-03-05T01:08:19.895Z,64.36
2019-03-05T01:13:24.635Z,64.40
2019-03-05T01:18:29.015Z,64.67
2019-03-05T01:23:33.376Z,63.85
2019-03-05T01:28:37.743Z,64.42
2019-03-05T01:33:52.764Z,64.76
2019-03-05T01:38:58.780Z,63.92
2019-03-05T01:44:03.217Z,63.45
2019-03-05T01:49:07.650Z,62.93
2019-03-05T01:54:12.093Z,63.13
2019-03-05T01:59:16.531Z,62.63
2019-03-05T02:04:20.962Z,63.06
2019-03-05T02:09:25.328Z,63.33
2019-03-05T02:14:29.676Z,62.90
2019-03-05T02:19:38.685Z,62.02
2019-03-05T02:25:02.708Z,62.50
2019-03-05T02:30:45.200Z,62.53
2019-03-05T02:36:04.711Z,62.09
2019-03-05T02:41:12.435Z,62.84
2019-03-05T02:46:20.102Z,63.12
2019-03-05T02:51:39.706Z,62.62
2019-03-05T02:57:09.644Z,63.07
2019-03-05T03:02:25.477Z,63.50
2019-03-05T03:07:30.100Z,63.83
2019-03-05T03:12:34.595Z,63.60
2019-03-05T03:17:39.016Z,63.39
2019-03-05T03:22:43.373Z,64.24
2019-03-05T03:27:47.767Z,64.24
2019-03-05T03:32:52.127Z,64.27
2019-03-05T03:37:56.626Z,64.76
2019-03-05T03:43:01.364Z,64.80
2019-03-05T03:48:05.700Z,65.24
2019-03-05T03:53:10.073Z,65.63
2019-03-05T03:58:15.497Z,65.22
2019-03-05T04:03:19.816Z,64.73
2019-03-05T04:08:24.259Z,64.42
2019-03-05T04:13:29.688Z,64.51
2019-03-05T04:18:34.255Z,64.24
2019-03-05T04:23:38.736Z,64.09
2019-03-05T04:28:43.150Z,64.13
2019-03-05T04:33:47.487Z,63.23
2019-03-05T04:38:51.860Z,62.94
2019-03-05T04:43:56.229Z,63.33
2019-03-05T04:49:11.208Z,62.79
2019-03-05T04:54:15.587Z,63.35
2019-03-05T04:59:19.895Z,62.85
2019-03-05T05:04:24.238Z,63.47
2019-03-05T05:09:28.604Z,62.99
2019-03-05T05:14:32.939Z,62.97
2019-03-05T05:19:37.324Z,63.52
2019-03-05T05:24:41.690Z,63.37
2019-03-05T05:29:46.049Z,62.86
2019-03-05T05:34:50.416Z,63.23
2019-03-05T05:40:20.631Z,63.06
2019-03-05T05:45:43.532Z,61.25
2019-03-05T05:50:47.901Z,61.25
2019-03-05T05:55:52.238Z,60.26
2019-03-05T06:00:58.328Z,60.27
2019-03-05T06:06:02.747Z,61.55
2019-03-05T06:11:07.148Z,61.00
2019-03-05T06:16:11.516Z,61.01
2019-03-05T06:21:15.952Z,61.29
2019-03-05T06:26:20.325Z,61.51
2019-03-05T06:31:24.692Z,61.05
2019-03-05T06:36:32.229Z,61.58
2019-03-05T06:41:36.582Z,61.79
2019-03-05T06:46:40.965Z,61.49
2019-03-05T06:51:45.301Z,61.62
2019-03-05T06:56:49.640Z,61.46
2019-03-05T07:01:53.973Z,60.48
2019-03-05T07:06:58.344Z,58.51
2019-03-05T07:12:11.948Z,59.13
2019-03-05T07:17:31.536Z,58.02
2019-03-05T07:22:41.860Z,58.57
2019-03-05T07:27:46.458Z,59.70
2019-03-05T07:32:51.769Z,61.78
2019-03-05T07:37:56.105Z,63.27
2019-03-05T07:43:00.473Z,62.59
2019-03-05T07:48:04.922Z,61.06
2019-03-05T07:53:09.284Z,60.76
2019-03-05T07:58:13.660Z,59.60
2019-03-05T08:03:18.043Z,58.26
2019-03-05T08:08:45.078Z,58.51
2019-03-05T08:14:10.690Z,57.39
2019-03-05T08:19:15.067Z,58.60
2019-03-05T08:24:19.379Z,58.33
2019-03-05T08:29:23.762Z,59.29
2019-03-05T08:34:28.127Z,60.00
2019-03-05T08:39:32.577Z,60.64
2019-03-05T08:44:36.902Z,60.21
2019-03-05T08:49:42.235Z,59.18
2019-03-05T08:54:47.551Z,58.24
2019-03-05T08:59:52.105Z,57.74
2019-03-05T09:04:57.727Z,57.29
2019-03-05T09:10:02.155Z,56.79
2019-03-05T09:15:09.950Z,56.48
2019-03-05T09:20:16.762Z,56.36
2019-03-05T09:25:21.275Z,55.71
2019-03-05T09:30:26.786Z,55.30
2019-03-05T09:35:31.324Z,55.42
2019-03-05T09:40:35.751Z,54.53
2019-03-05T09:45:40.277Z,55.99
2019-03-05T09:50:44.649Z,55.84
2019-03-05T09:55:49.007Z,55.45
2019-03-05T10:00:53.317Z,56.96
2019-03-05T10:05:57.757Z,56.98
2019-03-05T10:11:02.427Z,57.18
2019-03-05T10:16:06.881Z,57.43
2019-03-05T10:21:12.040Z,56.81
2019-03-05T10:26:18.614Z,56.97
2019-03-05T10:31:22.953Z,57.34
2019-03-05T10:36:27.493Z,57.04
2019-03-05T10:41:31.930Z,56.83
2019-03-05T10:46:36.284Z,56.42
2019-03-05T10:51:40.662Z,55.79
2019-03-05T10:56:45.006Z,55.21
2019-03-05T11:01:49.536Z,54.66
2019-03-05T11:06:53.904Z,55.67
2019-03-05T11:11:58.271Z,58.84
2019-03-05T11:17:02.637Z,59.27
2019-03-05T11:22:07.139Z,59.71
2019-03-05T11:27:11.618Z,59.38
2019-03-05T11:32:16.714Z,59.00
2019-03-05T11:37:21.146Z,60.20
2019-03-05T11:42:25.577Z,60.34
2019-03-05T11:47:29.946Z,60.22
2019-03-05T11:52:34.304Z,66.19
2019-03-05T11:57:38.768Z,64.75
2019-03-05T12:02:43.185Z,66.05
2019-03-05T12:07:47.526Z,62.50
2019-03-05T12:12:51.965Z,62.89
2019-03-05T12:17:56.301Z,61.27
2019-03-05T12:23:02.310Z,64.44
2019-03-05T12:28:10.527Z,71.73
2019-03-05T12:33:13.496Z,77.45
2019-03-05T12:38:17.893Z,78.05
2019-03-05T12:43:22.265Z,77.34
2019-03-05T12:48:26.768Z,77.57
2019-03-05T12:53:31.205Z,78.07
2019-03-05T12:58:35.556Z,78.00
2019-03-05T13:03:39.931Z,77.08
2019-03-05T13:08:44.265Z,79.69
2019-03-05T13:13:52.740Z,81.45
2019-03-05T13:18:54.672Z,81.17
2019-03-05T13:23:59.054Z,81.72
2019-03-05T13:29:03.420Z,81.65
2019-03-05T13:34:07.802Z,80.57
2019-03-05T13:39:12.343Z,77.78
2019-03-05T13:44:32.160Z,79.61
2019-03-05T13:49:41.067Z,80.81
2019-03-05T13:55:00.677Z,78.68
2019-03-05T14:00:10.158Z,79.37
2019-03-05T14:05:20.777Z,78.73
2019-03-05T14:10:26.317Z,77.66
2019-03-05T14:15:31.064Z,77.10
2019-03-05T14:20:35.500Z,76.30
2019-03-05T14:25:40.017Z,76.12
2019-03-05T14:30:44.439Z,78.36
2019-03-05T14:35:48.958Z,79.04
2019-03-05T14:40:53.574Z,77.79
2019-03-05T14:45:58.152Z,78.12
2019-03-05T14:51:02.552Z,77.24
2019-03-05T14:56:07.072Z,76.86
2019-03-05T15:01:11.768Z,77.32
2019-03-05T15:06:16.220Z,76.37
2019-03-05T15:11:20.631Z,76.79
2019-03-05T15:16:25.011Z,75.38
2019-03-05T15:21:29.391Z,74.74
2019-03-05T15:26:33.783Z,76.00
2019-03-05T15:31:38.110Z,74.47
2019-03-05T15:36:42.478Z,76.20
2019-03-05T15:41:46.824Z,76.28
2019-03-05T15:46:51.195Z,75.01
2019-03-05T15:51:55.681Z,74.17
2019-03-05T15:57:00.046Z,74.47
2019-03-05T16:02:04.422Z,75.43
2019-03-05T16:07:10.968Z,75.75
2019-03-05T16:12:14.826Z,75.59
2019-03-05T16:17:19.204Z,76.37
2019-03-05T16:22:24.444Z,76.13
2019-03-05T16:27:29.992Z,77.71
2019-03-05T16:32:42.388Z,77.36
2019-03-05T16:37:57.826Z,77.83
2019-03-05T16:43:04.124Z,77.83
2019-03-05T16:48:16.973Z,76.52
2019-03-05T16:53:29.599Z,76.14
2019-03-05T16:58:52.103Z,76.64
2019-03-05T17:04:01.090Z,76.13
2019-03-05T17:09:08.011Z,75.65
2019-03-05T17:14:14.070Z,76.01
2019-03-05T17:19:18.557Z,76.18
2019-03-05T17:24:23.078Z,76.16
2019-03-05T17:29:28.724Z,76.61
2019-03-05T17:34:33.128Z,76.62
2019-03-05T17:39:39.235Z,77.05
2019-03-05T17:44:43.871Z,75.98
2019-03-05T17:49:48.521Z,76.22
2019-03-05T17:54:53.028Z,75.35
2019-03-05T17:59:57.586Z,75.11
2019-03-05T18:05:01.993Z,75.59
2019-03-05T18:10:10.624Z,75.35
2019-03-05T18:15:18.189Z,74.73
2019-03-05T18:20:23.847Z,74.71
2019-03-05T18:25:28.217Z,76.20
2019-03-05T18:30:33.013Z,75.16
2019-03-05T18:35:37.456Z,74.81
2019-03-05T18:40:41.881Z,75.60
2019-03-05T18:45:46.319Z,74.86
2019-03-05T18:50:50.672Z,75.73
2019-03-05T18:55:55.371Z,75.65
2019-03-05T19:00:59.932Z,75.42
2019-03-05T19:06:04.471Z,75.47
2019-03-05T19:11:08.928Z,76.27
2019-03-05T19:16:13.278Z,76.04
2019-03-05T19:21:17.803Z,76.34
2019-03-05T19:26:22.195Z,76.62
2019-03-05T19:31:26.696Z,77.42
2019-03-05T19:36:31.031Z,77.11
2019-03-05T19:41:35.397Z,77.24
2019-03-05T19:46:39.815Z,76.34
2019-03-05T19:51:44.465Z,76.28
2019-03-05T19:56:48.806Z,75.92
2019-03-05T20:01:53.186Z,75.48
2019-03-05T20:06:57.554Z,75.37
2019-03-05T20:12:02.963Z,76.13
2019-03-05T20:17:07.303Z,75.57
2019-03-05T20:22:11.671Z,76.24
2019-03-05T20:27:16.452Z,76.25
2019-03-05T20:32:22.064Z,76.28
2019-03-05T20:37:26.396Z,76.73
2019-03-05T20:42:30.936Z,75.93
2019-03-05T20:47:35.549Z,75.88
2019-03-05T20:52:39.982Z,76.33
2019-03-05T20:57:45.093Z,77.30
2019-03-05T21:02:49.610Z,77.23
2019-03-05T21:07:54.087Z,77.52
2019-03-05T21:12:58.577Z,78.36
2019-03-05T21:18:05.166Z,76.61
2019-03-05T21:23:10.685Z,78.76
2019-03-05T21:28:15.027Z,78.72
2019-03-05T21:33:19.376Z,78.32
2019-03-05T21:38:23.809Z,78.20
2019-03-05T21:43:28.161Z,77.77
2019-03-05T21:48:33.735Z,78.31
2019-03-05T21:53:38.079Z,77.78
2019-03-05T21:58:42.416Z,77.67
2019-03-05T22:03:46.821Z,78.04
2019-03-05T22:08:51.356Z,79.29
2019-03-05T22:13:55.697Z,78.82
2019-03-05T22:19:00.096Z,79.40
2019-03-05T22:24:05.462Z,79.39
2019-03-05T22:29:09.928Z,78.55
2019-03-05T22:34:14.562Z,78.55
2019-03-05T22:39:18.999Z,80.34
2019-03-05T22:44:23.725Z,79.85
2019-03-05T22:49:28.260Z,79.93
2019-03-05T22:54:32.616Z,78.54
2019-03-05T22:59:37.077Z,80.60
2019-03-05T23:04:41.463Z,81.20
2019-03-05T23:09:45.944Z,77.63
2019-03-05T23:14:51.893Z,78.80
2019-03-05T23:19:56.364Z,80.11
2019-03-05T23:25:00.748Z,79.11
2019-03-05T23:30:10.473Z,80.10
2019-03-05T23:35:15.868Z,79.12
2019-03-05T23:40:21.260Z,80.91
2019-03-05T23:45:25.633Z,79.66
2019-03-05T23:50:29.981Z,79.66
2019-03-05T23:55:34.322Z,80.85
